aviador You're here:

KMIW Decoded Metar

MARSHALLTOWN in IA, USA
Report Time2018-01-22 11:23:00
UTC Time2018-01-22 11:54:53
Flight Rules ifr IFR
Wind070° at 17 kt
W.Decomp.*RWY 13: 8.2 kt HW 14.9 kt LCW
RWY 36: 6.1 kt HW 15.9 kt RCW
W.Rank070° ranks 32
Current wind is above 070° avg. (8.1)
Visibility9999 m
Phenomena:Light Rain
Clouds:Broken 006 Hf
Overcast 012 Hf
Ceiling600 ft
Temp03°C (ISA -10)
Dew Point03°C (100% RH)
AAT-4.6°C
QNH998 hPa
Density Alt374 ft
Elevation971 ft
Report Wrong Elevation
Raw Report
KMIW 221123Z AUTO 07017KT 8SM -RA BKN006 OVC012 03/03 A2948 RMK
AO2 P0001 T00330028=

Extra information for KMIW:More info

Metar Taf Metar & Taf Last 4 Metars F.Rules Stats Wind Profile Meteogram Temp Stats Airport Information Weather charts Add Link Nearby VenuesMetar ALERT Operation Metar Decoded Social comments

AIRNAV info for KMIW